createdAt,value
2019-01-02T00:00:45.984Z,956.37
2019-01-02T00:01:45.966Z,956.33
2019-01-02T00:02:45.945Z,956.31
2019-01-02T00:03:45.927Z,956.28
2019-01-02T00:04:45.909Z,956.21
2019-01-02T00:05:45.887Z,956.3
2019-01-02T00:06:45.869Z,956.28
2019-01-02T00:07:45.853Z,956.32
2019-01-02T00:08:45.832Z,956.32
2019-01-02T00:09:45.812Z,956.34
2019-01-02T00:10:45.792Z,956.36
2019-01-02T00:11:45.774Z,956.35
2019-01-02T00:12:45.753Z,956.49
2019-01-02T00:13:45.736Z,956.4
2019-01-02T00:14:45.713Z,956.38
2019-01-02T00:15:45.696Z,956.39
2019-01-02T00:16:45.676Z,956.42
2019-01-02T00:17:45.655Z,956.29
2019-01-02T00:18:45.637Z,956.3
2019-01-02T00:19:45.618Z,956.27
2019-01-02T00:20:45.599Z,956.2
2019-01-02T00:21:45.581Z,956.2
2019-01-02T00:22:45.560Z,956.2
2019-01-02T00:23:45.543Z,956.17
2019-01-02T00:24:45.522Z,956.17
2019-01-02T00:25:45.503Z,956.16
2019-01-02T00:26:45.484Z,956.15
2019-01-02T00:27:45.465Z,956.14
2019-01-02T00:28:45.447Z,956.13
2019-01-02T00:29:45.427Z,956.15
2019-01-02T00:30:45.408Z,956.16
2019-01-02T00:31:45.387Z,956.12
2019-01-02T00:32:45.370Z,956.23
2019-01-02T00:33:45.352Z,956.14
2019-01-02T00:34:45.331Z,956.19
2019-01-02T00:35:45.311Z,956.16
2019-01-02T00:36:45.292Z,956.2
2019-01-02T00:37:45.273Z,956.21
2019-01-02T00:38:45.254Z,956.22
2019-01-02T00:39:45.235Z,956.26
2019-01-02T00:40:45.217Z,956.19
2019-01-02T00:41:45.199Z,956.19
2019-01-02T00:42:45.178Z,956.2
2019-01-02T00:43:45.157Z,956.22
2019-01-02T00:44:45.139Z,956.28
2019-01-02T00:45:45.121Z,956.33
2019-01-02T00:46:45.100Z,956.37
2019-01-02T00:47:45.081Z,956.27
2019-01-02T00:48:45.062Z,956.35
2019-01-02T00:49:45.042Z,956.42
2019-01-02T00:50:45.024Z,956.4
2019-01-02T00:51:45.004Z,956.43
2019-01-02T00:52:44.985Z,956.43
2019-01-02T00:53:44.965Z,956.55
2019-01-02T00:54:44.945Z,956.54
2019-01-02T00:55:44.933Z,956.61
2019-01-02T00:56:44.909Z,956.61
2019-01-02T00:57:44.889Z,956.54
2019-01-02T00:58:44.870Z,956.58
2019-01-02T00:59:44.851Z,956.55
2019-01-02T01:00:44.830Z,956.58
2019-01-02T01:01:44.813Z,956.57
2019-01-02T01:02:44.792Z,956.56
2019-01-02T01:03:44.774Z,956.53
2019-01-02T01:04:44.755Z,956.52
2019-01-02T01:05:44.733Z,956.54
2019-01-02T01:06:44.716Z,956.52
2019-01-02T01:07:44.696Z,956.56
2019-01-02T01:08:44.677Z,956.52
2019-01-02T01:09:44.657Z,956.56
2019-01-02T01:10:44.641Z,956.58
2019-01-02T01:11:44.618Z,956.54
2019-01-02T01:12:44.599Z,956.59
2019-01-02T01:13:44.580Z,956.58
2019-01-02T01:14:44.562Z,956.6
2019-01-02T01:15:44.542Z,956.59
2019-01-02T01:16:44.521Z,956.57
2019-01-02T01:17:44.503Z,956.57
2019-01-02T01:18:44.482Z,956.6
2019-01-02T01:19:44.463Z,956.57
2019-01-02T01:20:44.447Z,956.59
2019-01-02T01:21:44.425Z,956.58
2019-01-02T01:22:44.405Z,956.6
2019-01-02T01:23:44.386Z,956.57
2019-01-02T01:24:44.371Z,956.53
2019-01-02T01:25:44.348Z,956.6
2019-01-02T01:26:44.328Z,956.6
2019-01-02T01:27:44.308Z,956.57
2019-01-02T01:28:44.291Z,956.61
2019-01-02T01:29:44.270Z,956.61
2019-01-02T01:30:44.250Z,956.63
2019-01-02T01:31:44.230Z,956.65
2019-01-02T01:32:44.212Z,956.63
2019-01-02T01:33:44.193Z,956.68
2019-01-02T01:34:44.173Z,956.6
2019-01-02T01:35:44.154Z,956.66
2019-01-02T01:36:44.134Z,956.67
2019-01-02T01:37:44.113Z,956.66
2019-01-02T01:38:44.094Z,956.66
2019-01-02T01:39:44.076Z,956.67
2019-01-02T01:40:44.056Z,956.62
2019-01-02T01:41:44.038Z,956.65
2019-01-02T01:42:44.021Z,956.69
2019-01-02T01:43:43.999Z,956.67
2019-01-02T01:44:43.978Z,956.65
2019-01-02T01:45:43.959Z,956.67
2019-01-02T01:46:43.942Z,956.69
2019-01-02T01:47:43.922Z,956.65
2019-01-02T01:48:43.902Z,956.76
2019-01-02T01:49:43.882Z,956.7
2019-01-02T01:50:43.863Z,956.67
2019-01-02T01:51:43.842Z,956.75
2019-01-02T01:52:43.824Z,956.69
2019-01-02T01:53:43.805Z,956.73
2019-01-02T01:54:43.785Z,956.67
2019-01-02T01:55:43.765Z,956.71
2019-01-02T01:56:43.745Z,956.75
2019-01-02T01:57:43.727Z,956.75
2019-01-02T01:58:43.708Z,956.75
2019-01-02T01:59:43.687Z,956.7
2019-01-02T02:00:43.668Z,956.74
2019-01-02T02:01:43.650Z,956.74
2019-01-02T02:02:43.630Z,956.74
2019-01-02T02:03:43.610Z,956.77
2019-01-02T02:04:43.591Z,956.69
2019-01-02T02:05:43.571Z,956.78
2019-01-02T02:06:43.552Z,956.76
2019-01-02T02:07:43.534Z,956.67
2019-01-02T02:08:43.513Z,956.79
2019-01-02T02:09:43.495Z,956.73
2019-01-02T02:10:43.479Z,956.67
2019-01-02T02:11:43.453Z,956.75
2019-01-02T02:12:43.435Z,956.81
2019-01-02T02:13:43.416Z,956.74
2019-01-02T02:14:43.397Z,956.71
2019-01-02T02:15:43.377Z,956.72
2019-01-02T02:16:43.359Z,956.82
2019-01-02T02:17:43.337Z,956.74
2019-01-02T02:18:43.317Z,956.81
2019-01-02T02:19:43.300Z,956.76
2019-01-02T02:20:43.283Z,956.71
2019-01-02T02:21:43.260Z,956.75
2019-01-02T02:22:43.241Z,956.67
2019-01-02T02:23:43.222Z,956.71
2019-01-02T02:24:43.201Z,956.74
2019-01-02T02:25:43.183Z,956.75
2019-01-02T02:26:43.162Z,956.76
2019-01-02T02:27:43.145Z,956.77
2019-01-02T02:28:43.125Z,956.75
2019-01-02T02:29:43.107Z,956.84
2019-01-02T02:30:43.087Z,956.84
2019-01-02T02:31:43.068Z,956.8
2019-01-02T02:32:43.047Z,956.74
2019-01-02T02:33:43.028Z,956.75
2019-01-02T02:34:43.008Z,956.76
2019-01-02T02:35:42.987Z,956.78
2019-01-02T02:36:42.969Z,956.75
2019-01-02T02:37:42.950Z,956.76
2019-01-02T02:38:42.930Z,956.76
2019-01-02T02:39:42.912Z,956.73
2019-01-02T02:40:42.892Z,956.76
2019-01-02T02:41:42.873Z,956.92
2019-01-02T02:42:42.904Z,956.8
2019-01-02T02:43:42.834Z,956.77
2019-01-02T02:44:42.814Z,956.73
2019-01-02T02:45:42.796Z,956.72
2019-01-02T02:46:42.777Z,956.79
2019-01-02T02:47:42.779Z,956.77
2019-01-02T02:48:42.738Z,956.74
2019-01-02T02:49:42.719Z,956.77
2019-01-02T02:50:42.700Z,956.79
2019-01-02T02:51:42.679Z,956.85
2019-01-02T02:52:42.661Z,956.86
2019-01-02T02:53:42.641Z,956.84
2019-01-02T02:54:42.621Z,956.85
2019-01-02T02:55:42.601Z,956.86
2019-01-02T02:56:42.587Z,956.86
2019-01-02T02:57:42.564Z,956.76
2019-01-02T02:58:42.544Z,956.86
2019-01-02T02:59:42.524Z,956.84
2019-01-02T03:00:42.505Z,956.84
2019-01-02T03:01:42.486Z,956.86
2019-01-02T03:02:42.467Z,956.88
2019-01-02T03:03:42.447Z,956.87
2019-01-02T03:04:42.430Z,956.85
2019-01-02T03:05:42.407Z,956.86
2019-01-02T03:06:42.817Z,956.91
2019-01-02T03:07:42.368Z,956.87
2019-01-02T03:08:42.349Z,956.89
2019-01-02T03:09:42.329Z,956.96
2019-01-02T03:10:42.311Z,956.89
2019-01-02T03:11:42.291Z,957
2019-01-02T03:12:42.272Z,956.97
2019-01-02T03:13:42.253Z,956.94
2019-01-02T03:14:42.234Z,956.96
2019-01-02T03:15:42.215Z,956.93
2019-01-02T03:16:42.195Z,956.96
2019-01-02T03:17:42.175Z,956.94
2019-01-02T03:18:42.156Z,956.99
2019-01-02T03:19:42.135Z,956.96
2019-01-02T03:20:42.116Z,956.97
2019-01-02T03:21:42.098Z,956.92
2019-01-02T03:22:42.078Z,957.01
2019-01-02T03:23:42.058Z,956.93
2019-01-02T03:24:42.039Z,956.91
2019-01-02T03:25:42.020Z,956.98
2019-01-02T03:26:42.000Z,956.9
2019-01-02T03:27:41.980Z,956.91
2019-01-02T03:28:41.962Z,956.95
2019-01-02T03:29:41.942Z,956.91
2019-01-02T03:30:41.923Z,956.92
2019-01-02T03:31:41.906Z,956.92
2019-01-02T03:32:41.884Z,956.89
2019-01-02T03:33:41.871Z,956.96
2019-01-02T03:34:41.845Z,956.94
2019-01-02T03:35:41.826Z,956.93
2019-01-02T03:36:41.806Z,956.92
2019-01-02T03:37:41.787Z,956.91
2019-01-02T03:38:41.770Z,956.9
2019-01-02T03:39:41.750Z,956.83
2019-01-02T03:40:41.730Z,956.82
2019-01-02T03:41:41.710Z,956.85
2019-01-02T03:42:41.691Z,956.83
2019-01-02T03:43:41.672Z,956.86
2019-01-02T03:44:41.653Z,956.92
2019-01-02T03:45:41.633Z,956.95
2019-01-02T03:46:41.615Z,956.88
2019-01-02T03:47:41.594Z,956.9
2019-01-02T03:48:41.573Z,956.91
2019-01-02T03:49:41.556Z,956.83
2019-01-02T03:50:41.536Z,956.9
2019-01-02T03:51:41.517Z,956.85
2019-01-02T03:52:41.501Z,956.91
2019-01-02T03:53:41.477Z,956.92
2019-01-02T03:54:41.462Z,956.9
2019-01-02T03:55:41.439Z,957.08
2019-01-02T03:56:41.421Z,956.99
2019-01-02T03:57:41.401Z,957.03
2019-01-02T03:58:41.382Z,957.01
2019-01-02T03:59:41.362Z,957.05
2019-01-02T04:00:41.343Z,957.02
2019-01-02T04:01:41.325Z,957.03
2019-01-02T04:02:41.337Z,957.02
2019-01-02T04:03:41.284Z,957.04
2019-01-02T04:04:41.264Z,957.06
2019-01-02T04:05:41.246Z,957.05
2019-01-02T04:06:41.228Z,956.99
2019-01-02T04:07:41.207Z,956.89
2019-01-02T04:08:41.188Z,957.12
2019-01-02T04:09:41.170Z,957.09
2019-01-02T04:10:41.147Z,957.07
2019-01-02T04:11:41.129Z,957.04
2019-01-02T04:12:41.110Z,957.06
2019-01-02T04:13:41.093Z,957.11
2019-01-02T04:14:41.071Z,957.08
2019-01-02T04:15:41.054Z,957.08
2019-01-02T04:16:41.033Z,957.17
2019-01-02T04:17:41.014Z,957.23
2019-01-02T04:18:40.995Z,957.29
2019-01-02T04:19:40.976Z,957.29
2019-01-02T04:20:40.957Z,957.28
2019-01-02T04:21:40.936Z,957.26
2019-01-02T04:22:40.917Z,957.3
2019-01-02T04:23:40.899Z,957.35
2019-01-02T04:24:40.879Z,957.36
2019-01-02T04:25:40.861Z,957.34
2019-01-02T04:26:40.840Z,957.32
2019-01-02T04:27:40.821Z,957.43
2019-01-02T04:28:40.801Z,957.33
2019-01-02T04:29:40.783Z,957.42
2019-01-02T04:30:40.762Z,957.44
2019-01-02T04:31:40.743Z,957.5
2019-01-02T04:32:40.726Z,957.6
2019-01-02T04:33:40.706Z,957.57
2019-01-02T04:34:40.686Z,957.56
2019-01-02T04:35:40.667Z,957.6
2019-01-02T04:36:40.648Z,957.54
2019-01-02T04:37:40.627Z,957.58
2019-01-02T04:38:40.609Z,957.58
2019-01-02T04:39:40.588Z,957.54
2019-01-02T04:40:40.570Z,957.6
2019-01-02T04:41:40.550Z,957.64
2019-01-02T04:42:40.536Z,957.71
2019-01-02T04:43:40.515Z,957.7
2019-01-02T04:44:40.493Z,957.68
2019-01-02T04:45:40.473Z,957.69
2019-01-02T04:46:40.455Z,957.8
2019-01-02T04:47:40.440Z,957.7
2019-01-02T04:48:40.418Z,957.68
2019-01-02T04:49:40.398Z,957.66
2019-01-02T04:50:40.377Z,957.75
2019-01-02T04:51:40.358Z,957.72
2019-01-02T04:52:40.340Z,957.7
2019-01-02T04:53:40.321Z,957.63
2019-01-02T04:54:40.300Z,957.69
2019-01-02T04:55:40.281Z,957.64
2019-01-02T04:56:40.263Z,957.65
2019-01-02T04:57:40.243Z,957.67
2019-01-02T04:58:40.225Z,957.74
2019-01-02T04:59:40.205Z,957.75
2019-01-02T05:00:40.186Z,957.75
2019-01-02T05:01:40.166Z,957.81
2019-01-02T05:02:40.146Z,957.78
2019-01-02T05:03:40.129Z,957.79
2019-01-02T05:04:40.110Z,957.74
2019-01-02T05:05:40.089Z,957.75
2019-01-02T05:06:40.070Z,957.74
2019-01-02T05:07:40.052Z,957.81
2019-01-02T05:08:40.032Z,957.81
2019-01-02T05:09:40.013Z,957.81
2019-01-02T05:10:39.993Z,957.77
2019-01-02T05:11:39.977Z,957.82
2019-01-02T05:12:39.954Z,957.88
2019-01-02T05:13:39.935Z,957.82
2019-01-02T05:14:39.916Z,957.85
2019-01-02T05:15:39.896Z,957.81
2019-01-02T05:16:39.877Z,957.91
2019-01-02T05:17:39.860Z,957.94
2019-01-02T05:18:39.840Z,957.91
2019-01-02T05:19:39.820Z,957.95
2019-01-02T05:20:39.800Z,957.88
2019-01-02T05:21:39.780Z,957.91
2019-01-02T05:22:39.763Z,958
2019-01-02T05:23:39.742Z,957.97
2019-01-02T05:24:39.723Z,958
2019-01-02T05:25:39.706Z,957.91
2019-01-02T05:26:39.685Z,957.93
2019-01-02T05:27:39.666Z,957.96
2019-01-02T05:28:39.646Z,957.96
2019-01-02T05:29:39.628Z,958.06
2019-01-02T05:30:39.608Z,957.98
2019-01-02T05:31:39.588Z,958.08
2019-01-02T05:32:39.569Z,958.01
2019-01-02T05:33:39.550Z,957.95
2019-01-02T05:34:39.529Z,958.02
2019-01-02T05:35:39.509Z,958
2019-01-02T05:36:39.492Z,958.05
2019-01-02T05:37:39.473Z,958.03
2019-01-02T05:38:39.454Z,958.07
2019-01-02T05:39:39.434Z,958.09
2019-01-02T05:40:39.416Z,958.09
2019-01-02T05:41:39.396Z,958.08
2019-01-02T05:42:39.376Z,958.11
2019-01-02T05:43:39.358Z,958.07
2019-01-02T05:44:39.339Z,958.05
2019-01-02T05:45:39.317Z,958.12
2019-01-02T05:46:39.300Z,958.1
2019-01-02T05:47:39.281Z,958.14
2019-01-02T05:48:39.260Z,958.17
2019-01-02T05:49:39.241Z,958.2
2019-01-02T05:50:39.221Z,958.22
2019-01-02T05:51:39.201Z,958.2
2019-01-02T05:52:39.184Z,958.3
2019-01-02T05:53:39.164Z,958.23
2019-01-02T05:54:39.146Z,958.21
2019-01-02T05:55:39.126Z,958.22
2019-01-02T05:56:39.115Z,958.37
2019-01-02T05:57:39.088Z,958.33
2019-01-02T05:58:39.069Z,958.35
2019-01-02T05:59:39.050Z,958.38
2019-01-02T06:00:39.861Z,958.38
2019-01-02T06:01:39.010Z,958.38
2019-01-02T06:02:38.992Z,958.43
2019-01-02T06:03:38.971Z,958.46
2019-01-02T06:04:38.954Z,958.53
2019-01-02T06:05:38.934Z,958.51
2019-01-02T06:06:38.914Z,958.54
2019-01-02T06:07:38.894Z,958.61
2019-01-02T06:08:38.875Z,958.56
2019-01-02T06:09:38.856Z,958.55
2019-01-02T06:10:38.836Z,958.57
2019-01-02T06:11:38.817Z,958.6
2019-01-02T06:12:38.797Z,958.62
2019-01-02T06:13:38.778Z,958.57
2019-01-02T06:14:38.760Z,958.53
2019-01-02T06:15:38.742Z,958.62
2019-01-02T06:16:38.731Z,958.6
2019-01-02T06:17:38.701Z,958.62
2019-01-02T06:18:38.683Z,958.68
2019-01-02T06:19:38.661Z,958.58
2019-01-02T06:20:38.643Z,958.62
2019-01-02T06:21:38.624Z,958.64
2019-01-02T06:22:38.604Z,958.61
2019-01-02T06:23:38.584Z,958.59
2019-01-02T06:24:38.567Z,958.52
2019-01-02T06:25:38.545Z,958.56
2019-01-02T06:26:38.526Z,958.58
2019-01-02T06:27:38.507Z,958.63
2019-01-02T06:28:38.488Z,958.63
2019-01-02T06:29:38.468Z,958.67
2019-01-02T06:30:38.451Z,958.64
2019-01-02T06:31:38.431Z,958.63
2019-01-02T06:32:38.417Z,958.67
2019-01-02T06:33:38.391Z,958.64
2019-01-02T06:34:38.374Z,958.62
2019-01-02T06:35:38.354Z,958.64
2019-01-02T06:36:38.333Z,958.68
2019-01-02T06:37:38.314Z,958.65
2019-01-02T06:38:38.296Z,958.65
2019-01-02T06:39:38.277Z,958.71
2019-01-02T06:40:38.256Z,958.67
2019-01-02T06:41:38.236Z,958.74
2019-01-02T06:42:38.221Z,958.73
2019-01-02T06:43:38.199Z,958.68
2019-01-02T06:44:38.178Z,958.73
2019-01-02T06:45:38.159Z,958.75
2019-01-02T06:46:38.140Z,958.74
2019-01-02T06:47:38.121Z,958.77
2019-01-02T06:48:38.102Z,958.84
2019-01-02T06:49:38.081Z,958.81
2019-01-02T06:50:38.062Z,958.77
2019-01-02T06:51:38.043Z,958.85
2019-01-02T06:52:38.023Z,958.89
2019-01-02T06:53:38.004Z,958.85
2019-01-02T06:54:37.985Z,958.92
2019-01-02T06:55:37.965Z,958.97
2019-01-02T06:56:37.946Z,958.97
2019-01-02T06:57:37.926Z,958.99
2019-01-02T06:58:37.906Z,959
2019-01-02T06:59:37.890Z,959.03
2019-01-02T07:00:37.868Z,959
2019-01-02T07:01:37.848Z,959.1
2019-01-02T07:02:37.829Z,959.04
2019-01-02T07:03:37.810Z,959.07
2019-01-02T07:04:37.790Z,959.09
2019-01-02T07:05:37.773Z,959.12
2019-01-02T07:06:37.751Z,959.09
2019-01-02T07:07:37.733Z,959.15
2019-01-02T07:08:37.714Z,959.17
2019-01-02T07:09:37.692Z,959.13
2019-01-02T07:10:37.675Z,959.23
2019-01-02T07:11:37.654Z,959.26
2019-01-02T07:12:37.636Z,959.23
2019-01-02T07:13:37.615Z,959.29
2019-01-02T07:14:37.597Z,959.26
2019-01-02T07:15:37.576Z,959.28
2019-01-02T07:16:37.563Z,959.3
2019-01-02T07:17:37.536Z,959.26
2019-01-02T07:18:37.517Z,959.29
2019-01-02T07:19:37.500Z,959.29
2019-01-02T07:20:37.479Z,959.29
2019-01-02T07:21:37.460Z,959.29
2019-01-02T07:22:37.440Z,959.31
2019-01-02T07:23:37.423Z,959.3
2019-01-02T07:24:37.403Z,959.32
2019-01-02T07:25:37.382Z,959.33
2019-01-02T07:26:37.364Z,959.28
2019-01-02T07:27:37.344Z,959.32
2019-01-02T07:28:37.325Z,959.33
2019-01-02T07:29:37.309Z,959.38
2019-01-02T07:30:37.286Z,959.32
2019-01-02T07:31:37.267Z,959.29
2019-01-02T07:32:37.247Z,959.24
2019-01-02T07:33:37.228Z,959.3
2019-01-02T07:34:37.210Z,959.28
2019-01-02T07:35:37.188Z,959.26
2019-01-02T07:36:37.169Z,959.33
2019-01-02T07:37:37.154Z,959.26
2019-01-02T07:38:37.148Z,959.23
2019-01-02T07:39:37.114Z,959.25
2019-01-02T07:40:37.093Z,959.26
2019-01-02T07:41:37.074Z,959.26
2019-01-02T07:42:37.054Z,959.29
2019-01-02T07:43:37.035Z,959.35
2019-01-02T07:44:37.015Z,959.3
2019-01-02T07:45:37.003Z,959.28
2019-01-02T07:46:37.528Z,959.27
2019-01-02T07:47:36.963Z,959.25
2019-01-02T07:48:36.947Z,959.26
2019-01-02T07:49:36.919Z,959.3
2019-01-02T07:50:36.898Z,959.28
2019-01-02T07:51:36.878Z,959.29
2019-01-02T07:52:36.859Z,959.25
2019-01-02T07:53:36.839Z,959.31
2019-01-02T07:54:36.820Z,959.29
2019-01-02T07:55:36.801Z,959.29
2019-01-02T07:56:36.785Z,959.32
2019-01-02T07:57:36.761Z,959.29
2019-01-02T07:58:36.742Z,959.29
2019-01-02T07:59:36.726Z,959.23
2019-01-02T08:00:36.702Z,959.24
2019-01-02T08:01:36.684Z,959.28
2019-01-02T08:02:36.666Z,959.29
2019-01-02T08:03:36.648Z,959.23
2019-01-02T08:04:36.625Z,959.24
2019-01-02T08:05:36.606Z,959.23
2019-01-02T08:06:36.588Z,959.24
2019-01-02T08:07:36.568Z,959.24
2019-01-02T08:08:36.548Z,959.27
2019-01-02T08:09:36.528Z,959.2
2019-01-02T08:10:36.509Z,959.19
2019-01-02T08:11:36.489Z,959.23
2019-01-02T08:12:36.470Z,959.23
2019-01-02T08:13:36.451Z,959.16
2019-01-02T08:14:36.432Z,959.19
2019-01-02T08:15:36.414Z,959.23
2019-01-02T08:16:36.392Z,959.26
2019-01-02T08:17:36.374Z,959.24
2019-01-02T08:18:36.355Z,959.28
2019-01-02T08:19:36.337Z,959.26
2019-01-02T08:20:36.314Z,959.23
2019-01-02T08:21:36.295Z,959.28
2019-01-02T08:22:36.276Z,959.18
2019-01-02T08:23:36.255Z,959.31
2019-01-02T08:24:36.237Z,959.32
2019-01-02T08:25:36.218Z,959.24
2019-01-02T08:26:36.197Z,959.35
2019-01-02T08:27:36.178Z,959.47
2019-01-02T08:28:36.163Z,959.36
2019-01-02T08:29:36.142Z,959.33
2019-01-02T08:30:36.120Z,959.4
2019-01-02T08:31:36.101Z,959.38
2019-01-02T08:32:36.083Z,959.32
2019-01-02T08:33:36.063Z,959.37
2019-01-02T08:34:36.043Z,959.32
2019-01-02T08:35:36.025Z,959.35
2019-01-02T08:36:36.005Z,959.4
2019-01-02T08:37:35.986Z,959.42
2019-01-02T08:38:35.967Z,959.46
2019-01-02T08:39:35.945Z,959.33
2019-01-02T08:40:35.928Z,959.37
2019-01-02T08:41:35.908Z,959.44
2019-01-02T08:42:35.889Z,959.44
2019-01-02T08:43:35.868Z,959.46
2019-01-02T08:44:35.848Z,959.44
2019-01-02T08:45:35.831Z,959.44
2019-01-02T08:46:35.814Z,959.45
2019-01-02T08:47:35.791Z,959.43
2019-01-02T08:48:35.771Z,959.45
2019-01-02T08:49:35.752Z,959.46
2019-01-02T08:50:35.733Z,959.46
2019-01-02T08:51:35.715Z,959.41
2019-01-02T08:52:35.693Z,959.43
2019-01-02T08:53:35.675Z,959.42
2019-01-02T08:54:35.654Z,959.44
2019-01-02T08:55:35.635Z,959.53
2019-01-02T08:56:35.615Z,959.42
2019-01-02T08:57:35.598Z,959.51
2019-01-02T08:58:35.579Z,959.44
2019-01-02T08:59:35.563Z,959.59
2019-01-02T09:00:35.539Z,959.56
2019-01-02T09:01:35.519Z,959.59
2019-01-02T09:02:35.501Z,959.54
2019-01-02T09:03:35.482Z,959.51
2019-01-02T09:04:35.463Z,959.54
2019-01-02T09:05:35.443Z,959.62
2019-01-02T09:06:35.424Z,959.58
2019-01-02T09:07:35.407Z,959.59
2019-01-02T09:08:35.387Z,959.55
2019-01-02T09:09:35.367Z,959.55
2019-01-02T09:10:35.347Z,959.58
2019-01-02T09:11:35.328Z,959.66
2019-01-02T09:12:35.308Z,959.66
2019-01-02T09:13:35.287Z,959.65
2019-01-02T09:14:35.269Z,959.64
2019-01-02T09:15:35.250Z,959.72
2019-01-02T09:16:35.231Z,959.63
2019-01-02T09:17:35.212Z,959.77
2019-01-02T09:18:35.193Z,959.79
2019-01-02T09:19:35.172Z,959.65
2019-01-02T09:20:35.154Z,959.78
2019-01-02T09:21:35.136Z,959.76
2019-01-02T09:22:35.113Z,959.71
2019-01-02T09:23:35.095Z,959.8
2019-01-02T09:24:35.077Z,959.81
2019-01-02T09:25:35.056Z,959.71
2019-01-02T09:26:35.037Z,959.78
2019-01-02T09:27:35.018Z,959.77
2019-01-02T09:28:34.998Z,959.76
2019-01-02T09:29:36.237Z,959.79
2019-01-02T09:30:34.960Z,959.58
2019-01-02T09:31:34.940Z,959.88
2019-01-02T09:32:34.922Z,959.9
2019-01-02T09:33:34.902Z,959.84
2019-01-02T09:34:34.883Z,959.93
2019-01-02T09:35:34.863Z,959.86
2019-01-02T09:36:34.843Z,959.88
2019-01-02T09:37:34.826Z,959.86
2019-01-02T09:38:34.806Z,959.9
2019-01-02T09:39:34.785Z,959.83
2019-01-02T09:40:34.840Z,959.89
2019-01-02T09:41:34.748Z,959.83
2019-01-02T09:42:34.729Z,959.81
2019-01-02T09:43:34.709Z,959.8
2019-01-02T09:44:34.689Z,959.84
2019-01-02T09:45:34.671Z,959.83
2019-01-02T09:46:34.714Z,960.08
2019-01-02T09:47:34.636Z,959.77
2019-01-02T09:48:34.612Z,959.9
2019-01-02T09:49:34.596Z,959.9
2019-01-02T09:50:34.576Z,959.98
2019-01-02T09:51:34.556Z,959.94
2019-01-02T09:52:34.537Z,959.99
2019-01-02T09:53:34.518Z,959.96
2019-01-02T09:54:34.503Z,960.11
2019-01-02T09:55:34.480Z,960.11
2019-01-02T09:56:34.461Z,960.03
2019-01-02T09:57:34.443Z,960.05
2019-01-02T09:58:34.421Z,960.03
2019-01-02T09:59:34.403Z,960.02
2019-01-02T10:00:34.385Z,959.98
2019-01-02T10:01:34.365Z,960.03
2019-01-02T10:02:34.345Z,959.97
2019-01-02T10:03:34.327Z,960.18
2019-01-02T10:04:34.307Z,960.21
2019-01-02T10:05:34.289Z,960.13
2019-01-02T10:06:34.273Z,960.24
2019-01-02T10:07:34.249Z,960.17
2019-01-02T10:08:34.230Z,960.12
2019-01-02T10:09:34.211Z,960.17
2019-01-02T10:10:34.193Z,960.15
2019-01-02T10:11:34.174Z,960.16
2019-01-02T10:12:34.155Z,960.29
2019-01-02T10:13:34.135Z,960.2
2019-01-02T10:14:34.119Z,960.14
2019-01-02T10:15:34.104Z,960.27
2019-01-02T10:16:34.078Z,960.27
2019-01-02T10:17:34.060Z,960.15
2019-01-02T10:18:34.040Z,960.2
2019-01-02T10:19:34.019Z,960.17
2019-01-02T10:20:34.000Z,960.15
2019-01-02T10:21:33.983Z,960.27
2019-01-02T10:22:33.963Z,960.19
2019-01-02T10:23:33.945Z,960.19
2019-01-02T10:24:33.925Z,960.23
2019-01-02T10:25:33.905Z,960.15
2019-01-02T10:26:33.886Z,960.2
2019-01-02T10:27:33.914Z,960.2
2019-01-02T10:28:33.847Z,960.15
2019-01-02T10:29:33.830Z,960.13
2019-01-02T10:30:33.809Z,960.14
2019-01-02T10:31:33.788Z,960.15
2019-01-02T10:32:33.770Z,960.2
2019-01-02T10:33:33.753Z,960.05
2019-01-02T10:34:33.730Z,960.05
2019-01-02T10:35:33.714Z,960
2019-01-02T10:36:33.694Z,959.89
2019-01-02T10:37:33.676Z,960.01
2019-01-02T10:38:33.657Z,959.91
2019-01-02T10:39:33.638Z,959.9
2019-01-02T10:40:33.619Z,959.97
2019-01-02T10:41:33.599Z,960.03
2019-01-02T10:42:33.582Z,959.91
2019-01-02T10:43:33.562Z,959.96
2019-01-02T10:44:33.544Z,960.04
2019-01-02T10:45:33.522Z,960.15
2019-01-02T10:46:33.505Z,960.09
2019-01-02T10:47:33.725Z,960.06
2019-01-02T10:48:33.466Z,960.12
2019-01-02T10:49:33.447Z,960.07
2019-01-02T10:50:33.428Z,960.04
2019-01-02T10:51:33.414Z,960.18
2019-01-02T10:52:33.389Z,960.22
2019-01-02T10:53:33.371Z,960.28
2019-01-02T10:54:33.352Z,960.25
2019-01-02T10:55:33.334Z,960.31
2019-01-02T10:56:33.314Z,960.56
2019-01-02T10:57:33.295Z,960.51
2019-01-02T10:58:36.501Z,960.53
2019-01-02T10:59:33.255Z,960.46
2019-01-02T11:00:33.238Z,960.39
2019-01-02T11:01:33.218Z,960.39
2019-01-02T11:02:33.199Z,960.46
2019-01-02T11:03:33.178Z,960.44
2019-01-02T11:04:33.160Z,960.58
2019-01-02T11:05:33.139Z,960.54
2019-01-02T11:06:33.121Z,960.49
2019-01-02T11:07:33.102Z,960.51
2019-01-02T11:08:33.080Z,960.53
2019-01-02T11:09:33.062Z,960.48
2019-01-02T11:10:33.041Z,960.5
2019-01-02T11:11:33.021Z,960.46
2019-01-02T11:12:33.002Z,960.44
2019-01-02T11:13:32.983Z,960.46
2019-01-02T11:14:32.963Z,960.46
2019-01-02T11:15:32.947Z,960.51
2019-01-02T11:16:32.927Z,960.54
2019-01-02T11:17:32.907Z,960.44
2019-01-02T11:18:32.884Z,960.5
2019-01-02T11:19:32.867Z,960.53
2019-01-02T11:20:32.847Z,960.56
2019-01-02T11:21:32.827Z,960.53
2019-01-02T11:22:32.807Z,960.51
2019-01-02T11:23:32.790Z,960.56
2019-01-02T11:24:32.768Z,960.57
2019-01-02T11:25:32.749Z,960.56
2019-01-02T11:26:32.729Z,960.57
2019-01-02T11:27:32.710Z,960.66
2019-01-02T11:28:32.691Z,960.69
2019-01-02T11:29:32.671Z,960.64
2019-01-02T11:30:32.653Z,960.65
2019-01-02T11:31:32.632Z,960.57
2019-01-02T11:32:32.613Z,960.58
2019-01-02T11:33:32.595Z,960.62
2019-01-02T11:34:32.574Z,960.62
2019-01-02T11:35:32.556Z,960.66
2019-01-02T11:36:32.535Z,960.65
2019-01-02T11:37:32.517Z,960.65
2019-01-02T11:38:32.496Z,960.68
2019-01-02T11:39:32.477Z,960.64
2019-01-02T11:40:32.457Z,960.65
2019-01-02T11:41:32.439Z,960.64
2019-01-02T11:42:32.420Z,960.67
2019-01-02T11:43:32.398Z,960.72
2019-01-02T11:44:32.430Z,960.67
2019-01-02T11:45:32.361Z,960.76
2019-01-02T11:46:32.341Z,960.81
2019-01-02T11:47:32.322Z,960.74
2019-01-02T11:48:32.301Z,960.7
2019-01-02T11:49:32.334Z,960.76
2019-01-02T11:50:32.298Z,960.77
2019-01-02T11:51:32.276Z,960.71
2019-01-02T11:52:32.258Z,960.74
2019-01-02T11:53:32.297Z,960.78
2019-01-02T11:54:32.277Z,960.79
2019-01-02T11:55:32.260Z,960.86
2019-01-02T11:56:32.300Z,960.82
2019-01-02T11:57:32.278Z,960.87
2019-01-02T11:58:32.293Z,960.77
2019-01-02T11:59:32.298Z,960.94
2019-01-02T12:00:32.280Z,960.91
2019-01-02T12:01:32.259Z,960.87
2019-01-02T12:02:34.249Z,960.87
2019-01-02T12:03:32.282Z,960.86
2019-01-02T12:04:32.260Z,960.84
2019-01-02T12:05:32.305Z,960.85
2019-01-02T12:06:32.284Z,960.86
2019-01-02T12:07:32.265Z,960.85
2019-01-02T12:08:32.307Z,960.92
2019-01-02T12:09:32.287Z,960.88
2019-01-02T12:10:32.266Z,960.86
2019-01-02T12:11:32.305Z,960.98
2019-01-02T12:12:32.286Z,960.98
2019-01-02T12:13:32.268Z,960.95
2019-01-02T12:14:32.307Z,961.03
2019-01-02T12:15:32.287Z,961.04
2019-01-02T12:16:32.270Z,961.02
2019-01-02T12:17:32.249Z,961.06
2019-01-02T12:18:32.230Z,961.09
2019-01-02T12:19:32.259Z,961.06
2019-01-02T12:20:32.192Z,961.09
2019-01-02T12:21:32.173Z,961.14
2019-01-02T12:22:32.156Z,961.04
2019-01-02T12:23:32.136Z,961.16
2019-01-02T12:24:32.167Z,961.15
2019-01-02T12:25:32.098Z,961.14
2019-01-02T12:26:32.077Z,961.2
2019-01-02T12:27:32.059Z,961.07
2019-01-02T12:28:32.039Z,961.04
2019-01-02T12:29:32.020Z,961.16
2019-01-02T12:30:32.001Z,961.14
2019-01-02T12:31:31.980Z,961.16